createdAt,value
2023-05-16T00:12:42.010Z,12.66
2023-05-16T00:27:44.058Z,14.21
2023-05-16T00:42:45.907Z,13.09
2023-05-16T00:57:47.715Z,13.19
2023-05-16T01:13:07.804Z,14.57
2023-05-16T01:28:10.764Z,13.37
2023-05-16T01:43:17.430Z,14.57
2023-05-16T01:58:26.316Z,14.50
2023-05-16T02:13:28.005Z,12.08
2023-05-16T02:28:29.607Z,13.26
2023-05-16T02:43:31.347Z,13.76
2023-05-16T02:58:34.115Z,14.48
2023-05-16T03:13:37.837Z,13.45
2023-05-16T03:28:39.472Z,12.38
2023-05-16T03:43:41.352Z,12.71
2023-05-16T03:58:43.000Z,12.81
2023-05-16T04:13:44.800Z,14.56
2023-05-16T04:28:46.537Z,14.07
2023-05-16T04:43:48.369Z,13.67
2023-05-16T04:58:50.096Z,12.83
2023-05-16T05:13:53.111Z,13.26
2023-05-16T05:29:04.676Z,13.93
2023-05-16T05:44:07.565Z,11.42
2023-05-16T05:59:15.061Z,14.90
2023-05-16T06:14:16.675Z,14.23
2023-05-16T06:29:18.322Z,13.98
2023-05-16T06:44:20.040Z,15.12
2023-05-16T06:59:21.993Z,13.90
2023-05-16T07:14:23.687Z,11.82
2023-05-16T07:29:25.676Z,15.38
2023-05-16T07:44:27.359Z,15.21
2023-05-16T07:59:29.654Z,12.92
2023-05-16T08:14:32.528Z,15.99
2023-05-16T08:29:34.289Z,16.59
2023-05-16T08:44:36.230Z,16.32
2023-05-16T08:59:37.778Z,17.88
2023-05-16T09:14:39.325Z,18.19
2023-05-16T09:29:42.110Z,17.09
2023-05-16T09:44:50.088Z,18.01
2023-05-16T09:59:51.825Z,14.97
2023-05-16T10:14:53.526Z,17.75
2023-05-16T10:29:55.653Z,16.85
2023-05-16T10:45:19.237Z,18.46
2023-05-16T11:00:24.132Z,17.37
2023-05-16T11:15:28.648Z,17.89
2023-05-16T11:30:30.768Z,18.89
2023-05-16T11:45:32.389Z,18.57
2023-05-16T12:00:34.053Z,18.55
2023-05-16T12:15:35.950Z,19.19
2023-05-16T12:30:43.619Z,18.81
2023-05-16T12:45:56.570Z,18.73
2023-05-16T13:00:58.565Z,19.38
2023-05-16T13:16:00.414Z,18.30
2023-05-16T13:31:02.176Z,18.88
2023-05-16T13:46:04.028Z,17.53
2023-05-16T14:01:08.682Z,17.74
2023-05-16T14:16:10.539Z,17.99
2023-05-16T14:31:12.253Z,15.01
2023-05-16T14:46:14.211Z,17.69
2023-05-16T15:01:16.699Z,17.54
2023-05-16T15:16:18.510Z,18.11
2023-05-16T15:31:20.201Z,17.34
2023-05-16T15:46:21.888Z,17.75
2023-05-16T16:01:23.658Z,17.13
2023-05-16T16:16:25.447Z,17.13
2023-05-16T16:31:27.308Z,17.16
2023-05-16T16:46:29.657Z,16.42
2023-05-16T17:01:32.111Z,16.44
2023-05-16T17:16:34.035Z,16.27
2023-05-16T17:31:50.915Z,16.82
2023-05-16T17:46:53.730Z,15.82
2023-05-16T18:01:58.862Z,16.13
2023-05-16T18:17:00.632Z,14.27
2023-05-16T18:32:02.517Z,16.83
2023-05-16T18:47:04.324Z,14.05
2023-05-16T19:02:06.076Z,15.71
2023-05-16T19:17:07.815Z,15.45
2023-05-16T19:32:10.787Z,15.93
2023-05-16T19:47:12.479Z,15.76
2023-05-16T20:02:16.059Z,16.54
2023-05-16T20:17:17.802Z,15.74
2023-05-16T20:32:19.700Z,16.34
2023-05-16T20:47:21.585Z,14.31
2023-05-16T21:02:23.376Z,14.91
2023-05-16T21:17:25.428Z,14.27
2023-05-16T21:32:32.206Z,14.82
2023-05-16T21:47:34.720Z,15.25
2023-05-16T22:02:37.248Z,15.31
2023-05-16T22:17:39.469Z,15.84
2023-05-16T22:32:41.461Z,14.82
2023-05-16T22:47:43.299Z,14.88
2023-05-16T23:02:45.061Z,15.33
2023-05-16T23:17:46.956Z,15.40
2023-05-16T23:32:48.590Z,16.15
2023-05-16T23:47:50.351Z,16.27
